createdAt,value
2022-10-04T00:00:41.417Z,1.42
2022-10-04T00:03:33.977Z,2.30
2022-10-04T00:06:02.348Z,1.83
2022-10-04T00:08:36.050Z,2.25
2022-10-04T00:11:28.593Z,2.80
2022-10-04T00:13:58.861Z,2.45
2022-10-04T00:16:41.763Z,2.25
2022-10-04T00:19:14.731Z,2.42
2022-10-04T00:21:56.339Z,2.08
2022-10-04T00:24:34.406Z,2.58
2022-10-04T00:27:23.426Z,2.00
2022-10-04T00:30:02.379Z,2.08
2022-10-04T00:32:30.319Z,1.98
2022-10-04T00:34:59.424Z,2.22
2022-10-04T00:37:27.464Z,1.83
2022-10-04T00:40:13.245Z,2.42
2022-10-04T00:42:42.955Z,2.45
2022-10-04T00:45:29.659Z,2.38
2022-10-04T00:48:04.329Z,2.35
2022-10-04T00:50:36.486Z,2.10
2022-10-04T00:53:30.826Z,2.28
2022-10-04T00:56:03.392Z,2.45
2022-10-04T00:58:35.827Z,2.28
2022-10-04T01:01:04.709Z,2.75
2022-10-04T01:03:39.079Z,2.55
2022-10-04T01:06:08.317Z,2.63
2022-10-04T01:08:46.523Z,2.40
2022-10-04T01:11:21.161Z,3.83
2022-10-04T01:13:56.540Z,2.40
2022-10-04T01:16:27.232Z,2.60
2022-10-04T01:18:54.150Z,2.85
2022-10-04T01:21:20.840Z,2.45
2022-10-04T01:23:50.403Z,2.83
2022-10-04T01:26:29.594Z,2.83
2022-10-04T01:29:10.746Z,2.55
2022-10-04T01:34:06.918Z,2.63
2022-10-04T01:36:35.306Z,2.22
2022-10-04T01:39:03.269Z,2.53
2022-10-04T01:41:40.570Z,2.70
2022-10-04T01:44:11.296Z,2.92
2022-10-04T01:46:41.125Z,2.75
2022-10-04T01:49:13.167Z,2.35
2022-10-04T01:52:02.502Z,2.67
2022-10-04T01:54:36.043Z,3.25
2022-10-04T01:57:10.859Z,3.25
2022-10-04T02:00:04.407Z,2.88
2022-10-04T02:02:44.583Z,2.58
2022-10-04T02:05:15.801Z,2.83
2022-10-04T02:07:43.481Z,3.00
2022-10-04T02:10:16.992Z,3.42
2022-10-04T02:12:49.383Z,2.65
2022-10-04T02:15:18.571Z,3.10
2022-10-04T02:17:46.401Z,3.22
2022-10-04T02:20:22.563Z,3.35
2022-10-04T02:22:52.791Z,2.88
2022-10-04T02:25:21.394Z,3.05
2022-10-04T02:27:53.800Z,3.33
2022-10-04T02:30:20.939Z,2.92
2022-10-04T02:33:03.236Z,3.28
2022-10-04T02:35:51.506Z,2.80
2022-10-04T02:38:30.222Z,2.95
2022-10-04T02:41:12.490Z,3.13
2022-10-04T02:43:43.561Z,2.75
2022-10-04T02:48:54.997Z,2.42
2022-10-04T02:51:37.159Z,3.28
2022-10-04T02:54:31.911Z,2.60
2022-10-04T02:56:59.561Z,3.05
2022-10-04T02:59:27.234Z,3.53
2022-10-04T03:02:01.651Z,3.47
2022-10-04T03:04:33.813Z,2.75
2022-10-04T03:07:05.010Z,3.33
2022-10-04T03:09:32.660Z,3.30
2022-10-04T03:11:59.519Z,3.38
2022-10-04T03:14:28.279Z,2.72
2022-10-04T03:16:57.312Z,3.45
2022-10-04T03:19:26.889Z,2.88
2022-10-04T03:21:57.241Z,2.78
2022-10-04T03:24:32.732Z,3.47
2022-10-04T03:27:02.870Z,2.83
2022-10-04T03:29:32.383Z,2.77
2022-10-04T03:32:02.877Z,2.70
2022-10-04T03:34:34.054Z,2.97
2022-10-04T03:37:01.926Z,2.72
2022-10-04T03:39:42.440Z,2.72
2022-10-04T03:42:22.027Z,3.25
2022-10-04T03:44:51.510Z,2.85
2022-10-04T03:47:32.226Z,3.20
2022-10-04T03:50:04.581Z,2.40
2022-10-04T03:52:34.856Z,2.88
2022-10-04T03:55:05.779Z,2.63
2022-10-04T03:57:34.626Z,2.65
2022-10-04T04:00:01.997Z,3.00
2022-10-04T04:02:56.667Z,3.88
2022-10-04T04:05:35.343Z,3.25
2022-10-04T04:08:14.703Z,2.75
2022-10-04T04:10:53.136Z,2.83
2022-10-04T04:13:24.419Z,2.97
2022-10-04T04:15:53.689Z,3.90
2022-10-04T04:18:27.125Z,3.35
2022-10-04T04:20:58.990Z,3.10
2022-10-04T04:23:35.173Z,3.10
2022-10-04T04:26:28.683Z,3.08
2022-10-04T04:29:03.682Z,3.50
2022-10-04T04:31:53.554Z,3.30
2022-10-04T04:34:29.867Z,3.25
2022-10-04T04:37:01.919Z,2.88
2022-10-04T04:39:39.662Z,3.70
2022-10-04T04:42:23.512Z,3.05
2022-10-04T04:45:00.206Z,3.00
2022-10-04T04:47:40.699Z,2.85
2022-10-04T04:50:18.501Z,2.83
2022-10-04T04:52:50.165Z,2.90
2022-10-04T04:55:27.450Z,3.28
2022-10-04T04:57:58.099Z,2.97
2022-10-04T05:00:31.825Z,3.55
2022-10-04T05:03:15.959Z,3.35
2022-10-04T05:05:46.508Z,2.92
2022-10-04T05:08:20.875Z,3.40
2022-10-04T05:10:57.649Z,2.97
2022-10-04T05:13:34.586Z,3.72
2022-10-04T05:16:02.139Z,3.13
2022-10-04T05:18:32.075Z,2.70
2022-10-04T05:21:12.612Z,2.80
2022-10-04T05:23:39.541Z,3.03
2022-10-04T05:26:11.507Z,3.00
2022-10-04T05:28:38.715Z,2.90
2022-10-04T05:31:27.319Z,2.67
2022-10-04T05:34:17.407Z,2.17
2022-10-04T05:37:07.880Z,2.58
2022-10-04T05:39:52.278Z,2.38
2022-10-04T05:42:34.346Z,2.60
2022-10-04T05:45:01.349Z,3.45
2022-10-04T05:47:30.442Z,2.95
2022-10-04T05:49:58.821Z,3.08
2022-10-04T05:52:30.707Z,2.70
2022-10-04T05:55:12.915Z,3.22
2022-10-04T05:57:48.164Z,2.58
2022-10-04T06:00:23.112Z,2.72
2022-10-04T06:03:24.130Z,2.53
2022-10-04T06:05:57.407Z,2.65
2022-10-04T06:09:02.682Z,2.60
2022-10-04T06:12:02.355Z,2.60
2022-10-04T06:15:02.047Z,2.45
2022-10-04T06:17:34.717Z,2.38
2022-10-04T06:20:15.660Z,2.58
2022-10-04T06:22:47.237Z,2.72
2022-10-04T06:25:26.252Z,2.97
2022-10-04T06:28:14.316Z,2.92
2022-10-04T06:30:59.614Z,2.63
2022-10-04T06:33:35.315Z,2.83
2022-10-04T06:36:28.091Z,2.90
2022-10-04T06:39:22.571Z,2.97
2022-10-04T06:42:04.326Z,3.45
2022-10-04T06:44:38.480Z,3.25
2022-10-04T06:47:39.073Z,2.80
2022-10-04T06:50:33.658Z,2.88
2022-10-04T06:53:48.212Z,3.00
2022-10-04T06:56:29.494Z,3.20
2022-10-04T06:59:31.976Z,2.75
2022-10-04T07:02:03.855Z,5.88
2022-10-04T07:05:06.390Z,9.75
2022-10-04T07:07:37.620Z,9.50
2022-10-04T07:10:35.072Z,6.68
2022-10-04T07:13:13.282Z,8.38
2022-10-04T07:16:09.847Z,15.40
2022-10-04T07:18:58.061Z,8.13
2022-10-04T07:21:33.564Z,5.10
2022-10-04T07:24:03.668Z,5.03
2022-10-04T07:26:34.259Z,4.17
2022-10-04T07:29:23.252Z,4.60
2022-10-04T07:32:08.220Z,7.03
2022-10-04T07:34:45.529Z,21.60
2022-10-04T07:37:14.191Z,31.20
2022-10-04T07:39:55.661Z,15.93
2022-10-04T07:42:25.442Z,7.60
2022-10-04T07:45:05.951Z,3.97
2022-10-04T07:47:32.941Z,3.50
2022-10-04T07:50:00.038Z,3.25
2022-10-04T07:52:36.140Z,3.67
2022-10-04T07:55:29.449Z,3.75
2022-10-04T07:58:08.068Z,3.15
2022-10-04T08:00:58.672Z,3.15
2022-10-04T08:03:34.862Z,3.38
2022-10-04T08:06:33.164Z,3.13
2022-10-04T08:09:21.328Z,3.22
2022-10-04T08:12:01.651Z,2.72
2022-10-04T08:14:54.719Z,3.17
2022-10-04T08:17:30.454Z,2.70
2022-10-04T08:20:36.592Z,3.00
2022-10-04T08:23:14.937Z,2.70
2022-10-04T08:26:00.448Z,2.90
2022-10-04T08:29:05.790Z,2.97
2022-10-04T08:32:05.071Z,2.63
2022-10-04T08:35:01.840Z,3.55
2022-10-04T08:37:28.515Z,3.13
2022-10-04T08:40:17.032Z,2.80
2022-10-04T08:43:08.089Z,3.33
2022-10-04T08:45:45.345Z,2.90
2022-10-04T08:48:22.613Z,2.70
2022-10-04T08:51:03.019Z,2.78
2022-10-04T08:53:50.641Z,3.42
2022-10-04T08:56:36.211Z,3.25
2022-10-04T08:59:16.449Z,3.60
2022-10-04T09:02:06.989Z,2.63
2022-10-04T09:04:40.344Z,3.60
2022-10-04T09:07:48.811Z,3.60
2022-10-04T09:10:42.355Z,3.70
2022-10-04T09:13:26.480Z,3.35
2022-10-04T09:15:56.190Z,3.30
2022-10-04T09:18:48.724Z,2.90
2022-10-04T09:21:27.947Z,2.60
2022-10-04T09:24:34.952Z,2.88
2022-10-04T09:27:54.796Z,2.75
2022-10-04T09:31:06.323Z,2.45
2022-10-04T09:33:54.902Z,2.58
2022-10-04T09:36:47.914Z,2.90
2022-10-04T09:39:52.740Z,2.67
2022-10-04T09:42:41.848Z,3.05
2022-10-04T09:45:50.570Z,2.90
2022-10-04T09:48:25.530Z,2.28
2022-10-04T09:51:20.251Z,2.70
2022-10-04T09:53:58.456Z,3.00
2022-10-04T09:56:46.808Z,2.20
2022-10-04T09:59:32.391Z,2.80
2022-10-04T10:02:38.562Z,2.75
2022-10-04T10:05:42.452Z,3.03
2022-10-04T10:08:28.479Z,2.53
2022-10-04T10:11:20.785Z,1.95
2022-10-04T10:14:15.178Z,2.65
2022-10-04T10:17:00.450Z,2.67
2022-10-04T10:19:57.348Z,2.13
2022-10-04T10:22:31.142Z,2.17
2022-10-04T10:25:40.226Z,2.55
2022-10-04T10:28:31.851Z,2.13
2022-10-04T10:31:47.021Z,2.35
2022-10-04T10:34:44.886Z,2.13
2022-10-04T10:37:33.377Z,1.98
2022-10-04T10:40:07.750Z,2.05
2022-10-04T10:42:53.601Z,2.20
2022-10-04T10:45:33.097Z,1.95
2022-10-04T10:48:28.832Z,1.85
2022-10-04T10:51:10.267Z,1.70
2022-10-04T10:53:55.690Z,1.95
2022-10-04T10:56:47.804Z,2.10
2022-10-04T10:59:39.594Z,2.10
2022-10-04T11:02:49.993Z,1.80
2022-10-04T11:05:50.879Z,1.95
2022-10-04T11:08:36.741Z,1.60
2022-10-04T11:12:01.024Z,2.35
2022-10-04T11:14:57.377Z,1.88
2022-10-04T11:17:46.479Z,1.90
2022-10-04T11:20:41.335Z,2.05
2022-10-04T11:23:26.910Z,2.03
2022-10-04T11:26:07.162Z,3.53
2022-10-04T11:28:46.384Z,2.47
2022-10-04T11:31:25.474Z,2.33
2022-10-04T11:34:16.378Z,2.38
2022-10-04T11:36:59.887Z,2.38
2022-10-04T11:40:04.045Z,1.92
2022-10-04T11:42:49.847Z,2.13
2022-10-04T11:45:38.541Z,2.30
2022-10-04T11:48:25.556Z,2.33
2022-10-04T11:51:07.354Z,2.47
2022-10-04T11:54:11.997Z,2.60
2022-10-04T11:56:42.290Z,3.40
2022-10-04T11:59:21.225Z,3.05
2022-10-04T12:02:28.795Z,2.00
2022-10-04T12:05:14.130Z,2.55
2022-10-04T12:08:04.940Z,2.28
2022-10-04T12:10:41.305Z,2.42
2022-10-04T12:13:18.236Z,2.58
2022-10-04T12:16:18.494Z,2.08
2022-10-04T12:19:16.180Z,2.03
2022-10-04T12:22:10.641Z,2.05
2022-10-04T12:24:40.389Z,1.95
2022-10-04T12:27:44.847Z,2.00
2022-10-04T12:30:28.155Z,1.88
2022-10-04T12:33:22.118Z,2.17
2022-10-04T12:35:54.983Z,2.20
2022-10-04T12:38:52.405Z,2.15
2022-10-04T12:41:53.267Z,1.90
2022-10-04T12:44:20.006Z,2.05
2022-10-04T12:47:24.089Z,1.90
2022-10-04T12:50:12.085Z,2.20
2022-10-04T12:52:53.336Z,2.95
2022-10-04T12:55:41.666Z,3.15
2022-10-04T12:58:23.981Z,1.90
2022-10-04T13:00:53.793Z,1.60
2022-10-04T13:03:46.051Z,1.85
2022-10-04T13:06:51.175Z,1.90
2022-10-04T13:10:05.439Z,8.32
2022-10-04T13:12:52.780Z,3.95
2022-10-04T13:17:25.007Z,2.00
2022-10-04T13:18:32.167Z,1.75
2022-10-04T13:21:03.167Z,1.95
2022-10-04T13:23:51.649Z,2.20
2022-10-04T13:26:42.887Z,2.10
2022-10-04T13:29:30.208Z,2.05
2022-10-04T13:32:37.339Z,1.67
2022-10-04T13:35:33.095Z,2.20
2022-10-04T13:38:14.369Z,1.80
2022-10-04T13:41:12.492Z,2.40
2022-10-04T13:43:57.435Z,2.90
2022-10-04T13:46:24.146Z,3.13
2022-10-04T13:49:16.032Z,5.43
2022-10-04T13:52:23.231Z,2.00
2022-10-04T13:55:40.153Z,2.20
2022-10-04T13:58:21.368Z,1.80
2022-10-04T14:01:14.050Z,1.90
2022-10-04T14:04:02.257Z,1.77
2022-10-04T14:07:01.399Z,1.92
2022-10-04T14:09:52.434Z,1.55
2022-10-04T14:12:49.385Z,1.75
2022-10-04T14:15:53.335Z,1.90
2022-10-04T14:18:50.126Z,1.85
2022-10-04T14:22:00.036Z,1.67
2022-10-04T14:24:36.457Z,1.50
2022-10-04T14:27:39.438Z,1.63
2022-10-04T14:30:12.524Z,2.33
2022-10-04T14:33:13.437Z,1.40
2022-10-04T14:38:43.143Z,1.40
2022-10-04T14:41:41.080Z,1.38
2022-10-04T14:44:10.783Z,1.30
2022-10-04T14:46:40.575Z,1.50
2022-10-04T14:49:19.677Z,1.43
2022-10-04T14:51:52.131Z,1.67
2022-10-04T14:54:42.459Z,1.48
2022-10-04T14:57:44.366Z,1.40
2022-10-04T15:00:33.553Z,1.70
2022-10-04T15:03:18.313Z,1.50
2022-10-04T15:05:55.060Z,1.40
2022-10-04T15:08:21.847Z,1.42
2022-10-04T15:10:52.251Z,1.45
2022-10-04T15:13:19.672Z,1.70
2022-10-04T15:15:52.258Z,1.60
2022-10-04T15:18:55.990Z,1.63
2022-10-04T15:21:50.463Z,1.33
2022-10-04T15:24:17.196Z,2.58
2022-10-04T15:27:34.470Z,2.40
2022-10-04T15:30:12.973Z,1.42
2022-10-04T15:32:47.763Z,2.10
2022-10-04T15:35:36.346Z,1.90
2022-10-04T15:38:05.860Z,1.70
2022-10-04T15:40:55.993Z,1.80
2022-10-04T15:44:23.789Z,1.67
2022-10-04T15:47:07.231Z,1.98
2022-10-04T15:49:51.399Z,1.52
2022-10-04T15:52:18.073Z,1.60
2022-10-04T15:55:03.331Z,1.70
2022-10-04T15:57:45.450Z,1.42
2022-10-04T16:00:15.240Z,1.23
2022-10-04T16:02:56.107Z,1.38
2022-10-04T16:05:32.530Z,1.50
2022-10-04T16:08:11.221Z,1.70
2022-10-04T16:11:00.426Z,1.48
2022-10-04T16:13:41.744Z,1.75
2022-10-04T16:16:17.713Z,1.70
2022-10-04T16:18:53.423Z,1.25
2022-10-04T16:21:20.108Z,1.60
2022-10-04T16:23:48.102Z,1.40
2022-10-04T16:26:18.327Z,1.52
2022-10-04T16:29:00.525Z,1.40
2022-10-04T16:31:52.360Z,1.45
2022-10-04T16:34:41.666Z,1.90
2022-10-04T16:37:33.094Z,1.77
2022-10-04T16:40:15.944Z,1.70
2022-10-04T16:42:56.099Z,1.50
2022-10-04T16:45:44.736Z,1.70
2022-10-04T16:48:23.342Z,1.27
2022-10-04T16:51:19.259Z,1.30
2022-10-04T16:53:59.407Z,1.27
2022-10-04T16:56:32.825Z,1.63
2022-10-04T16:59:05.079Z,1.65
2022-10-04T17:01:59.722Z,1.85
2022-10-04T17:04:41.417Z,1.70
2022-10-04T17:07:14.027Z,1.60
2022-10-04T17:10:23.344Z,1.55
2022-10-04T17:12:55.344Z,2.00
2022-10-04T17:15:33.706Z,1.88
2022-10-04T17:18:18.377Z,1.80
2022-10-04T17:21:30.257Z,1.63
2022-10-04T17:24:31.175Z,1.73
2022-10-04T17:27:19.217Z,1.90
2022-10-04T17:29:54.782Z,1.73
2022-10-04T17:32:30.412Z,1.55
2022-10-04T17:35:12.426Z,1.77
2022-10-04T17:37:54.542Z,2.25
2022-10-04T17:41:09.353Z,2.03
2022-10-04T17:44:02.202Z,1.85
2022-10-04T17:47:01.172Z,2.47
2022-10-04T17:50:10.724Z,2.10
2022-10-04T17:53:12.334Z,2.33
2022-10-04T17:55:58.571Z,2.03
2022-10-04T17:58:39.775Z,2.10
2022-10-04T18:01:15.988Z,2.22
2022-10-04T18:03:52.448Z,3.08
2022-10-04T18:06:42.584Z,2.20
2022-10-04T18:09:20.497Z,1.70
2022-10-04T18:11:53.518Z,2.03
2022-10-04T18:14:29.052Z,2.08
2022-10-04T18:17:09.100Z,2.30
2022-10-04T18:19:41.968Z,2.73
2022-10-04T18:22:16.234Z,2.10
2022-10-04T18:24:45.793Z,1.98
2022-10-04T18:27:22.040Z,1.70
2022-10-04T18:30:15.344Z,1.85
2022-10-04T18:32:48.655Z,2.58
2022-10-04T18:35:28.378Z,2.05
2022-10-04T18:38:19.308Z,2.78
2022-10-04T18:41:13.187Z,2.80
2022-10-04T18:43:52.077Z,2.40
2022-10-04T18:46:21.569Z,2.03
2022-10-04T18:48:54.250Z,2.20
2022-10-04T18:51:40.180Z,2.17
2022-10-04T18:54:16.495Z,2.38
2022-10-04T18:57:00.424Z,1.92
2022-10-04T19:00:07.252Z,2.10
2022-10-04T19:02:59.859Z,2.03
2022-10-04T19:06:11.047Z,1.73
2022-10-04T19:11:24.163Z,2.30
2022-10-04T19:13:58.334Z,2.30
2022-10-04T19:16:31.337Z,2.40
2022-10-04T19:19:16.152Z,8.93
2022-10-04T19:21:55.497Z,5.88
2022-10-04T19:24:32.467Z,2.10
2022-10-04T19:27:19.109Z,1.90
2022-10-04T19:30:12.502Z,1.83
2022-10-04T19:33:06.809Z,1.90
2022-10-04T19:36:00.930Z,2.28
2022-10-04T19:38:46.381Z,1.80
2022-10-04T19:41:37.652Z,2.30
2022-10-04T19:44:24.081Z,1.90
2022-10-04T19:47:20.126Z,2.28
2022-10-04T19:50:31.222Z,2.00
2022-10-04T19:53:07.515Z,2.25
2022-10-04T19:55:51.474Z,1.73
2022-10-04T19:58:37.072Z,2.17
2022-10-04T20:01:23.194Z,2.30
2022-10-04T20:04:11.486Z,2.20
2022-10-04T20:06:48.118Z,2.30
2022-10-04T20:09:40.974Z,2.40
2022-10-04T20:12:27.523Z,2.85
2022-10-04T20:15:40.519Z,2.78
2022-10-04T20:18:32.256Z,2.78
2022-10-04T20:21:00.090Z,2.53
2022-10-04T20:23:48.726Z,2.30
2022-10-04T20:27:06.053Z,2.45
2022-10-04T20:29:38.847Z,1.98
2022-10-04T20:32:11.020Z,2.10
2022-10-04T20:34:37.683Z,2.22
2022-10-04T20:37:09.271Z,2.05
2022-10-04T20:39:41.814Z,2.10
2022-10-04T20:42:31.581Z,2.55
2022-10-04T20:45:09.012Z,1.98
2022-10-04T20:47:42.065Z,1.90
2022-10-04T20:50:17.780Z,1.90
2022-10-04T20:52:50.948Z,2.05
2022-10-04T20:55:21.751Z,2.00
2022-10-04T20:57:48.617Z,2.20
2022-10-04T21:00:25.577Z,2.05
2022-10-04T21:03:15.772Z,2.10
2022-10-04T21:05:42.986Z,2.23
2022-10-04T21:08:22.680Z,1.88
2022-10-04T21:11:06.105Z,2.38
2022-10-04T21:14:00.235Z,2.00
2022-10-04T21:16:43.575Z,2.13
2022-10-04T21:19:32.361Z,2.10
2022-10-04T21:22:04.404Z,1.77
2022-10-04T21:24:40.122Z,1.95
2022-10-04T21:27:12.714Z,1.85
2022-10-04T21:29:39.967Z,2.13
2022-10-04T21:32:06.964Z,1.75
2022-10-04T21:34:52.459Z,2.20
2022-10-04T21:37:21.200Z,2.03
2022-10-04T21:39:48.048Z,2.30
2022-10-04T21:42:15.159Z,2.00
2022-10-04T21:44:41.909Z,1.85
2022-10-04T21:47:09.169Z,2.33
2022-10-04T21:49:36.138Z,1.75
2022-10-04T21:52:02.943Z,1.95
2022-10-04T21:54:29.763Z,2.17
2022-10-04T21:56:56.513Z,1.67
2022-10-04T21:59:23.333Z,1.88
2022-10-04T22:01:50.072Z,1.80
2022-10-04T22:04:16.868Z,2.17
2022-10-04T22:06:44.037Z,1.73
2022-10-04T22:09:11.583Z,2.10
2022-10-04T22:11:38.334Z,2.47
2022-10-04T22:14:05.114Z,1.52
2022-10-04T22:16:31.963Z,1.80
2022-10-04T22:18:58.764Z,2.00
2022-10-04T22:21:25.496Z,2.25
2022-10-04T22:23:52.338Z,1.80
2022-10-04T22:26:21.715Z,1.88
2022-10-04T22:28:53.462Z,2.28
2022-10-04T22:31:25.647Z,2.10
2022-10-04T22:33:52.821Z,2.40
2022-10-04T22:36:39.594Z,2.25
2022-10-04T22:39:09.034Z,1.50
2022-10-04T22:41:39.547Z,1.92
2022-10-04T22:44:14.672Z,1.77
2022-10-04T22:46:45.036Z,1.90
2022-10-04T22:49:15.216Z,1.98
2022-10-04T22:51:44.035Z,1.83
2022-10-04T22:54:16.914Z,3.45
2022-10-04T22:56:44.290Z,2.58
2022-10-04T22:59:13.221Z,4.38
2022-10-04T23:01:40.214Z,2.92
2022-10-04T23:04:27.272Z,1.83
2022-10-04T23:06:54.073Z,1.92
2022-10-04T23:09:20.821Z,1.95
2022-10-04T23:11:48.113Z,1.50
2022-10-04T23:14:14.982Z,1.70
2022-10-04T23:16:43.004Z,2.30
2022-10-04T23:19:20.011Z,1.77
2022-10-04T23:21:49.719Z,1.63
2022-10-04T23:24:17.840Z,1.95
2022-10-04T23:26:48.022Z,1.60
2022-10-04T23:29:17.062Z,1.73
2022-10-04T23:31:43.881Z,2.20
2022-10-04T23:34:18.874Z,1.90
2022-10-04T23:36:48.040Z,1.77
2022-10-04T23:39:24.708Z,1.98
2022-10-04T23:41:52.927Z,1.67
2022-10-04T23:44:19.818Z,1.73
2022-10-04T23:46:46.831Z,1.80
2022-10-04T23:49:16.687Z,1.75
2022-10-04T23:51:44.874Z,1.65
2022-10-04T23:54:17.817Z,1.48
2022-10-04T23:56:47.819Z,1.58
2022-10-04T23:59:18.511Z,1.95
